メインページ
METAR-TAF:

METAR-TAF

空港 :

テグシガルパ, ホンジュラス

トンコンティン国際空港

緯度: 14-03N, 経度: 087-13W, 海抜: 994m

現時点の気象観測

当レポートは41分前の19:00(UTC)に作成
北東の風 8kt
気温 31°C
湿度 26%
気圧 1018 hPa
視程10km以上
高度3400ftの雲はほとんどない

METAR: MHTG 251900Z 04008KT 9999 FEW034 31/09 Q1018 A3006 NOSIG

時間: 13:41 (19:41 UTC)

予報

当レポートは3時間16分前の16:25(UTC)に作成
予報は25日の 18時(UTC)から 26日の 18時(UTC)まで有効
東/北東の風 8kt
視程10km以上
高度3200ftの雲は散在している
26日の 08時(UTC)から 26日の 10時(UTC)まで徐々に
の風 kt
視程: 7000m
高度800ftの雲はほとんどない
26日の 13時(UTC)から 26日の 15時(UTC)まで徐々に
東/北東の風 6kt
視程10km以上
高度3200ftの雲はほとんどない

TAF: MHTG 251625Z 2518/2618 07008KT 9999 SCT032 TX31/2521Z TN15/2612Z BECMG 2608/2610 00000KT 7000 FEW008 BECMG 2613/2615 06006KT 9999 FEW032

4,000以上の空港の気象観測と天気予報(METAR報とTAF報)

利用可能な観測所は地図上に黄色い丸と赤い丸で示す。

丸の上にカーソルを重ねると観測所名を参照できる。

次にクリックすると気象観測と天気予報を参照できる。

マップの切り替え:黒色「×」印の緑ボタンをクリックして拡大、「-」印の緑ボタンをクリックして縮小、緑色の三角印をクリックして隣りの地図に切り替え


METAR-TAF: